• Join FlightAware (Why Join?)
  • Login
  • US Flag 
10:35PM EDT


 

Airport Tracker/Info


-or-


 

Live Flight TrackerFlight Track Log ✈ TAM3751 ✈ 22-Sep-2013 ✈ SBEG / MAO - SBGR / GRU

Flight Track Log - Related Links

Times and Time Zones

All times are in EDT time to prevent confusion due to time zone crossing. See the TAM3751 flight status page for this flight to view local times or setup timezone preferences in your user account.

Time Position Orientation Groundspeed Altitude Reporting Facility
EDT Latitude Longitude Course Direction KTS MPH feet Rate Location/Type
12:29AM -3.0390 -60.0360 90° East 166 191 600  Level FlightAware
12:29AM -3.0390 -60.0170 90° East 174 200 1,300 1,260 Climbing FlightAware
12:30AM -3.0390 -59.9920 90° East 200 230 1,700 840 Climbing FlightAware
12:30AM -3.0410 -59.9880 117° Southeast 202 232 1,800 960 Climbing FlightAware
12:30AM -3.0440 -59.9820 117° Southeast 210 242 1,900 720 Climbing FlightAware
12:30AM -3.0510 -59.9770 145° Southeast 222 255 2,000 720 Climbing FlightAware
12:30AM -3.0590 -59.9720 148° Southeast 237 273 2,100 1,020 Climbing FlightAware
12:31AM -3.0810 -59.9620 156° South 263 303 2,500 1,500 Climbing FlightAware
12:31AM -3.1030 -59.9530 158° South 273 314 3,100 2,400 Climbing FlightAware
12:31AM -3.1270 -59.9420 155° Southeast 273 314 4,100 2,820 Climbing FlightAware
12:32AM -3.1550 -59.9290 155° Southeast 269 310 5,200 2,640 Climbing FlightAware
12:32AM -3.1680 -59.9230 155° Southeast 270 311 5,700 2,400 Climbing FlightAware
12:32AM -3.1900 -59.9120 153° Southeast 272 313 6,500 2,160 Climbing FlightAware
12:33AM -3.2130 -59.9000 152° Southeast 275 316 7,200 2,040 Climbing FlightAware
12:33AM -3.2410 -59.8870 155° Southeast 280 322 8,000 2,160 Climbing FlightAware
12:33AM -3.2660 -59.8750 154° Southeast 284 327 8,800 2,100 Climbing FlightAware
12:34AM -3.2900 -59.8630 153° Southeast 291 335 9,400 1,860 Climbing FlightAware
12:34AM -3.3090 -59.8540 155° Southeast 295 339 9,900 1,500 Climbing FlightAware
12:35AM -3.3550 -59.8320 154° Southeast 314 361 10,700 1,020 Climbing FlightAware
12:35AM -3.3980 -59.8110 154° Southeast 342 394 11,100 1,080 Climbing FlightAware
12:36AM -3.4540 -59.7840 154° Southeast 360 414 12,000 1,560 Climbing FlightAware
12:36AM -3.5070 -59.7580 154° Southeast 368 423 13,000 1,740 Climbing FlightAware
12:37AM -3.5560 -59.7340 154° Southeast 370 426 14,000 1,740 Climbing FlightAware
12:37AM -3.6120 -59.7070 154° Southeast 376 433 15,000 1,560 Climbing FlightAware
12:38AM -3.6680 -59.6800 154° Southeast 381 438 15,900 1,560 Climbing FlightAware
12:39AM -3.7220 -59.6540 154° Southeast 384 442 16,800 1,560 Climbing FlightAware
12:39AM -3.7790 -59.6260 154° Southeast 387 445 17,700 660 Climbing FlightAware
12:40AM -3.8340 -59.5980 153° Southeast 387 445 17,700  Level FlightAware
12:40AM -3.8830 -59.5730 153° Southeast 387 445 17,700  Level FlightAware
12:41AM -3.9330 -59.5470 153° Southeast 387 445 17,700  Level FlightAware
12:42AM -3.9820 -59.5230 154° Southeast 387 445 17,700  Level FlightAware
12:42AM -4.0310 -59.4980 153° Southeast 387 445 17,700  Level FlightAware
12:43AM -4.0810 -59.4720 153° Southeast 387 445 17,700 120 Level FlightAware
12:46AM -4.3247 -59.3205 148° Southeast  Level Estimated
12:47AM -4.4184 -59.2622 148° Southeast  Level Estimated
12:48AM -4.5121 -59.2039 148° Southeast  Level Estimated
12:49AM -4.6058 -59.1456 148° Southeast  Level Estimated
12:50AM -4.6995 -59.0872 148° Southeast  Level Estimated
12:51AM -4.7932 -59.0289 148° Southeast  Level Estimated
12:52AM -4.8869 -58.9705 148° Southeast  Level Estimated
12:53AM -4.9805 -58.9122 148° Southeast  Level Estimated
12:54AM -5.0742 -58.8537 148° Southeast  Level Estimated
12:55AM -5.1679 -58.7953 148° Southeast  Level Estimated
12:56AM -5.2616 -58.7369 148° Southeast  Level Estimated
12:57AM -5.3552 -58.6785 148° Southeast  Level Estimated
12:58AM -5.4489 -58.6200 148° Southeast  Level Estimated
12:59AM -5.5425 -58.5615 148° Southeast  Level Estimated
01:00AM -5.6362 -58.5030 148° Southeast  Level Estimated
01:01AM -5.7298 -58.4445 148° Southeast  Level Estimated
01:02AM -5.8235 -58.3859 148° Southeast  Level Estimated
01:03AM -5.9171 -58.3274 148° Southeast  Level Estimated
01:04AM -6.0107 -58.2688 148° Southeast  Level Estimated
01:05AM -6.1043 -58.2102 148° Southeast  Level Estimated
01:06AM -6.1979 -58.1516 148° Southeast  Level Estimated
01:07AM -6.2915 -58.0929 148° Southeast  Level Estimated
01:08AM -6.3851 -58.0342 148° Southeast  Level Estimated
01:09AM -6.4787 -57.9755 148° Southeast  Level Estimated
01:10AM -6.5723 -57.9168 148° Southeast  Level Estimated
01:11AM -6.6659 -57.8581 148° Southeast  Level Estimated
01:12AM -6.7595 -57.7994 148° Southeast  Level Estimated
01:13AM -6.8530 -57.7406 148° Southeast  Level Estimated
01:14AM -6.9466 -57.6818 148° Southeast  Level Estimated
01:15AM -7.0401 -57.6230 148° Southeast  Level Estimated
01:16AM -7.1337 -57.5641 148° Southeast  Level Estimated
01:17AM -7.2272 -57.5052 148° Southeast  Level Estimated
01:18AM -7.3207 -57.4463 148° Southeast  Level Estimated
01:19AM -7.4142 -57.3874 148° Southeast  Level Estimated
01:20AM -7.5078 -57.3285 148° Southeast  Level Estimated
01:21AM -7.6013 -57.2695 148° Southeast  Level Estimated
01:22AM -7.6947 -57.2105 148° Southeast  Level Estimated
01:23AM -7.7882 -57.1515 148° Southeast  Level Estimated
01:24AM -7.8817 -57.0924 148° Southeast  Level Estimated
01:25AM -7.9752 -57.0333 148° Southeast  Level Estimated
01:26AM -8.0686 -56.9742 148° Southeast  Level Estimated
01:27AM -8.1621 -56.9151 148° Southeast  Level Estimated
01:28AM -8.2555 -56.8559 148° Southeast  Level Estimated
01:29AM -8.3490 -56.7968 148° Southeast  Level Estimated
01:30AM -8.4424 -56.7375 148° Southeast  Level Estimated
01:31AM -8.5358 -56.6783 148° Southeast  Level Estimated
01:32AM -8.6292 -56.6190 148° Southeast  Level Estimated
01:33AM -8.7226 -56.5597 148° Southeast  Level Estimated
01:34AM -8.8160 -56.5004 148° Southeast  Level Estimated
01:35AM -8.9094 -56.4411 148° Southeast  Level Estimated
01:36AM -9.0028 -56.3817 148° Southeast  Level Estimated
01:37AM -9.0961 -56.3222 148° Southeast  Level Estimated
01:38AM -9.1895 -56.2628 148° Southeast  Level Estimated
01:39AM -9.2828 -56.2033 148° Southeast  Level Estimated
01:40AM -9.3762 -56.1438 148° Southeast  Level Estimated
01:41AM -9.4695 -56.0842 148° Southeast  Level Estimated
01:42AM -9.5628 -56.0247 148° Southeast  Level Estimated
01:43AM -9.6561 -55.9650 148° Southeast  Level Estimated
01:44AM -9.7494 -55.9054 148° Southeast  Level Estimated
01:45AM -9.8427 -55.8457 148° Southeast  Level Estimated
01:46AM -9.9359 -55.7860 148° Southeast  Level Estimated
01:47AM -10.0292 -55.7263 148° Southeast  Level Estimated
01:48AM -10.1224 -55.6665 148° Southeast  Level Estimated
01:49AM -10.2157 -55.6067 148° Southeast  Level Estimated
01:50AM -10.3089 -55.5468 148° Southeast  Level Estimated
01:51AM -10.4021 -55.4869 148° Southeast  Level Estimated
01:52AM -10.4953 -55.4270 148° Southeast  Level Estimated
01:53AM -10.5885 -55.3670 148° Southeast  Level Estimated
01:54AM -10.6817 -55.3070 148° Southeast  Level Estimated
01:55AM -10.7749 -55.2470 148° Southeast  Level Estimated
01:56AM -10.8680 -55.1869 148° Southeast  Level Estimated
01:57AM -10.9612 -55.1268 148° Southeast  Level Estimated
01:58AM -11.0543 -55.0667 148° Southeast  Level Estimated
01:59AM -11.1475 -55.0065 148° Southeast  Level Estimated
02:00AM -11.2406 -54.9463 148° Southeast  Level Estimated
02:01AM -11.3337 -54.8860 148° Southeast  Level Estimated
02:02AM -11.4268 -54.8257 148° Southeast  Level Estimated
02:03AM -11.5198 -54.7654 148° Southeast  Level Estimated
02:04AM -11.6129 -54.7050 148° Southeast  Level Estimated
02:05AM -11.7059 -54.6446 148° Southeast  Level Estimated
02:06AM -11.7990 -54.5841 148° Southeast  Level Estimated
02:07AM -11.8920 -54.5236 148° Southeast  Level Estimated
02:08AM -11.9850 -54.4631 148° Southeast  Level Estimated
02:09AM -12.0780 -54.4025 148° Southeast  Level Estimated
02:10AM -12.1710 -54.3419 147° Southeast  Level Estimated
02:11AM -12.2640 -54.2812 147° Southeast  Level Estimated
02:12AM -12.3569 -54.2205 147° Southeast  Level Estimated
02:13AM -12.4499 -54.1598 147° Southeast  Level Estimated
02:14AM -12.5428 -54.0989 147° Southeast  Level Estimated
02:15AM -12.6357 -54.0381 147° Southeast  Level Estimated
02:16AM -12.7287 -53.9772 147° Southeast  Level Estimated
02:17AM -12.8216 -53.9163 147° Southeast  Level Estimated
02:18AM -12.9144 -53.8553 147° Southeast  Level Estimated
02:19AM -13.0073 -53.7943 147° Southeast  Level Estimated
02:20AM -13.1001 -53.7332 147° Southeast  Level Estimated
02:21AM -13.1930 -53.6721 147° Southeast  Level Estimated
02:22AM -13.2858 -53.6110 147° Southeast  Level Estimated
02:23AM -13.3786 -53.5497 147° Southeast  Level Estimated
02:24AM -13.4714 -53.4885 147° Southeast  Level Estimated
02:25AM -13.5642 -53.4272 147° Southeast  Level Estimated
02:26AM -13.6569 -53.3658 147° Southeast  Level Estimated
02:27AM -13.7497 -53.3044 147° Southeast  Level Estimated
02:28AM -13.8424 -53.2430 147° Southeast  Level Estimated
02:29AM -13.9351 -53.1815 147° Southeast  Level Estimated
02:30AM -14.0278 -53.1200 147° Southeast  Level Estimated
02:31AM -14.1205 -53.0584 147° Southeast  Level Estimated
02:32AM -14.2132 -52.9967 147° Southeast  Level Estimated
02:33AM -14.3059 -52.9350 147° Southeast  Level Estimated
02:34AM -14.3985 -52.8733 147° Southeast  Level Estimated
02:35AM -14.4911 -52.8115 147° Southeast  Level Estimated
02:36AM -14.5837 -52.7496 147° Southeast  Level Estimated
02:37AM -14.6763 -52.6877 147° Southeast  Level Estimated
02:38AM -14.7689 -52.6258 147° Southeast  Level Estimated
02:39AM -14.8614 -52.5638 147° Southeast  Level Estimated
02:40AM -14.9540 -52.5017 147° Southeast  Level Estimated
02:41AM -15.0465 -52.4396 147° Southeast  Level Estimated
02:42AM -15.1390 -52.3774 147° Southeast  Level Estimated
02:43AM -15.2315 -52.3152 147° Southeast  Level Estimated
02:44AM -15.3240 -52.2529 147° Southeast  Level Estimated
02:45AM -15.4164 -52.1906 147° Southeast  Level Estimated
02:46AM -15.5089 -52.1282 147° Southeast  Level Estimated
02:47AM -15.6013 -52.0658 147° Southeast  Level Estimated
02:48AM -15.6937 -52.0033 147° Southeast  Level Estimated
02:49AM -15.7861 -51.9407 147° Southeast  Level Estimated
02:50AM -15.8784 -51.8781 147° Southeast  Level Estimated
02:51AM -15.9708 -51.8154 147° Southeast  Level Estimated
02:52AM -16.0631 -51.7527 147° Southeast  Level Estimated
02:53AM -16.1554 -51.6899 147° Southeast  Level Estimated
02:54AM -16.2477 -51.6271 147° Southeast  Level Estimated
02:55AM -16.3400 -51.5642 147° Southeast  Level Estimated
02:56AM -16.4322 -51.5012 147° Southeast  Level Estimated
02:57AM -16.5245 -51.4382 147° Southeast  Level Estimated
02:58AM -16.6167 -51.3751 147° Southeast  Level Estimated
02:59AM -16.7089 -51.3120 147° Southeast  Level Estimated
03:00AM -16.8011 -51.2488 147° Southeast  Level Estimated
03:01AM -16.8932 -51.1855 147° Southeast  Level Estimated
03:02AM -16.9854 -51.1222 147° Southeast  Level Estimated
03:03AM -17.0775 -51.0588 147° Southeast  Level Estimated
03:03AM -18.6890 -50.1190 147° Southeast 438 504 35,000  Level FlightAware
03:04AM -17.1696 -50.9953 147° Southeast  Level Estimated
03:04AM -18.7470 -50.0720 143° Southeast 438 504 35,000  Level FlightAware
03:04AM -18.8190 -50.0110 141° Southeast 439 505 35,000  Level FlightAware
03:05AM -18.8670 -49.9700 141° Southeast 439 505 35,000  Level FlightAware
03:06AM -18.9340 -49.9180 144° Southeast 441 507 35,000  Level FlightAware
03:06AM -18.9930 -49.8690 142° Southeast 442 509 35,000  Level FlightAware
03:07AM -19.0500 -49.8230 143° Southeast 442 509 35,000  Level FlightAware
03:07AM -19.1090 -49.7740 142° Southeast 443 510 35,000  Level FlightAware
03:08AM -19.1590 -49.7330 142° Southeast 443 510 35,000  Level FlightAware
03:09AM -19.2190 -49.6830 142° Southeast 443 510 35,000  Level FlightAware
03:09AM -19.2760 -49.6360 142° Southeast 443 510 35,000  Level FlightAware
03:10AM -19.3360 -49.5870 142° Southeast 443 510 35,000  Level FlightAware
03:10AM -19.3870 -49.5440 142° Southeast 445 512 35,000  Level FlightAware
03:11AM -19.4410 -49.5000 142° Southeast 445 512 35,000  Level FlightAware
03:11AM -19.4990 -49.4510 141° Southeast 444 511 35,000  Level FlightAware
03:12AM -19.5500 -49.4090 142° Southeast 445 512 35,000  Level FlightAware
03:13AM -19.6060 -49.3630 142° Southeast 444 511 35,000  Level FlightAware
03:13AM -19.6680 -49.3110 142° Southeast 444 511 35,000  Level FlightAware
03:14AM -19.7270 -49.2620 142° Southeast 445 512 35,000  Level FlightAware
03:14AM -19.7800 -49.2180 142° Southeast 446 513 35,000  Level FlightAware
03:15AM -19.8370 -49.1700 142° Southeast 447 514 35,000  Level FlightAware
03:15AM -19.8930 -49.1240 142° Southeast 447 514 35,000  Level FlightAware
03:16AM -19.9540 -49.0720 141° Southeast 446 513 35,000  Level FlightAware
03:17AM -20.0050 -49.0300 142° Southeast 446 513 35,000  Level FlightAware
03:17AM -20.0640 -48.9800 141° Southeast 446 513 35,000  Level FlightAware
03:18AM -20.1220 -48.9320 142° Southeast 447 514 35,000  Level FlightAware
03:18AM -20.1740 -48.8890 142° Southeast 449 517 35,000  Level FlightAware
03:19AM -20.2330 -48.8380 141° Southeast 449 517 35,000  Level FlightAware
03:20AM -20.2910 -48.7900 142° Southeast 450 518 35,000  Level FlightAware
03:20AM -20.3510 -48.7390 141° Southeast 450 518 35,000  Level FlightAware
03:21AM -20.4030 -48.6960 142° Southeast 449 517 35,000  Level FlightAware
03:21AM -20.4610 -48.6470 142° Southeast 449 517 35,000  Level FlightAware
03:22AM -20.5200 -48.5970 142° Southeast 449 517 35,000  Level FlightAware
03:22AM -20.5790 -48.5470 142° Southeast 449 517 35,000  Level FlightAware
03:23AM -20.6310 -48.5030 142° Southeast 449 517 35,000  Level FlightAware
03:24AM -20.6890 -48.4540 142° Southeast 451 519 35,000  Level FlightAware
03:24AM -20.7490 -48.4030 142° Southeast 451 519 35,000  Level FlightAware
03:25AM -20.8070 -48.3540 142° Southeast 451 519 35,000  Level FlightAware
03:25AM -20.8620 -48.3070 141° Southeast 451 519 35,000  Level FlightAware
03:26AM -20.9160 -48.2610 141° Southeast 451 519 35,000  Level FlightAware
03:27AM -20.9770 -48.2090 141° Southeast 451 519 35,000  Level FlightAware
03:27AM -21.0360 -48.1600 142° Southeast 451 519 35,000  Level FlightAware
03:28AM -21.0890 -48.1150 142° Southeast 451 519 35,000  Level FlightAware
03:28AM -21.1480 -48.0640 141° Southeast 450 518 35,000  Level FlightAware
03:29AM -21.2050 -48.0150 141° Southeast 449 517 35,000  Level FlightAware
03:29AM -21.2610 -47.9670 141° Southeast 449 517 35,000  Level FlightAware
03:30AM -21.3190 -47.9170 141° Southeast 450 518 35,000  Level FlightAware
03:31AM -21.3790 -47.8660 142° Southeast 449 517 35,000  Level FlightAware
03:31AM -21.4360 -47.8170 141° Southeast 448 516 35,000  Level FlightAware
03:32AM -21.4890 -47.7720 142° Southeast 449 517 35,000  Level FlightAware
03:32AM -21.5450 -47.7230 141° Southeast 450 518 35,000  Level FlightAware
03:33AM -21.6080 -47.6750 145° Southeast 443 510 35,000  Level FlightAware
03:34AM -21.6720 -47.6370 151° Southeast 441 507 35,000  Level FlightAware
03:34AM -21.7290 -47.6040 152° Southeast 451 519 35,000  Level FlightAware
03:35AM -21.8010 -47.5610 151° Southeast 455 524 35,000 -780 Level FlightAware
03:35AM -21.8620 -47.5250 151° Southeast 455 524 34,100 -1,920 Descending FlightAware
03:36AM -21.9300 -47.4840 151° Southeast 461 531 32,700 -2,400 Descending FlightAware
03:36AM -21.9900 -47.4480 151° Southeast 473 544 31,400 -2,400 Descending FlightAware
03:37AM -22.0560 -47.4090 151° Southeast 481 554 30,100 -2,340 Descending FlightAware
03:38AM -22.1290 -47.3650 151° Southeast 474 545 28,600 -2,400 Descending FlightAware
03:38AM -22.2040 -47.3210 151° Southeast 487 560 27,200 -2,400 Descending FlightAware
03:39AM -22.2670 -47.2830 151° Southeast 504 580 25,900 -2,400 Descending FlightAware
03:39AM -22.3400 -47.2400 151° Southeast 517 595 24,500 -2,460 Descending FlightAware
03:40AM -22.4200 -47.1920 151° Southeast 521 600 23,000 -2,340 Descending FlightAware
03:41AM -22.4930 -47.1480 151° Southeast 509 586 21,700 -2,160 Descending FlightAware
03:41AM -22.5580 -47.1090 151° Southeast 489 563 20,600 -2,400 Descending FlightAware
03:42AM -22.6330 -47.0740 157° South 472 543 19,000 -2,820 Descending FlightAware
03:42AM -22.7160 -47.0390 159° South 462 532 17,000 -2,400 Descending FlightAware
03:43AM -22.7880 -47.0090 159° South 446 513 15,900 -1,380 Descending FlightAware
03:44AM -22.8550 -46.9810 159° South 428 493 15,400 -1,260 Descending FlightAware
03:44AM -22.9110 -46.9570 158° South 421 484 14,500 -2,340 Descending FlightAware
03:45AM -22.9790 -46.9290 159° South 423 487 12,800 -2,640 Descending FlightAware
03:45AM -23.0450 -46.9010 159° South 414 476 11,300 -1,800 Descending FlightAware
03:46AM -23.1020 -46.8770 159° South 384 442 10,800 -1,020 Descending FlightAware
03:46AM -23.1570 -46.8530 158° South 339 390 10,200 -1,020 Descending FlightAware
03:47AM -23.1840 -46.8420 159° South 321 369 9,900 -1,680 Descending FlightAware
03:47AM -23.2180 -46.8280 159° South 313 360 9,000 -1,920 Descending FlightAware
03:48AM -23.2450 -46.8170 159° South 313 360 8,500 -1,500 Descending FlightAware
03:48AM -23.2720 -46.8050 158° South 312 359 8,000 -1,380 Descending FlightAware
03:48AM -23.2960 -46.7950 159° South 308 354 7,600 -1,500 Descending FlightAware
03:49AM -23.3310 -46.7800 159° South 307 353 6,900 -1,260 Descending FlightAware
03:49AM -23.3560 -46.7690 158° South 295 339 6,700 -600 Descending FlightAware
03:49AM -23.3710 -46.7620 157° South 286 329 6,600 -300 Descending FlightAware
03:49AM -23.3800 -46.7550 144° Southeast 280 322 6,600 -480 Level FlightAware
03:50AM -23.3990 -46.7380 141° Southeast 270 311 6,400 -720 Descending FlightAware
03:50AM -23.4140 -46.7240 139° Southeast 255 293 6,200 -720 Descending FlightAware
03:50AM -23.4310 -46.7080 139° Southeast 238 274 6,000 -720 Descending FlightAware
03:51AM -23.4490 -46.6890 136° Southeast 210 242 5,700 -660 Descending FlightAware
03:51AM -23.4510 -46.6850 119° Southeast 200 230 5,700 -600 Level FlightAware
03:51AM -23.4570 -46.6720 117° Southeast 190 219 5,500 -720 Descending FlightAware
03:51AM -23.4640 -46.6540 113° Southeast 177 204 5,300 -780 Descending FlightAware
03:52AM -23.4710 -46.6380 116° Southeast 176 203 5,000 -1,020 Descending FlightAware
03:52AM -23.4740 -46.6240 103° East 170 196 4,700 -720 Descending FlightAware
03:52AM -23.4720 -46.6090 82° East 160 184 4,600 -420 Descending FlightAware
03:52AM -23.4690 -46.6000 70° East 157 181 4,500 -840 Descending FlightAware
03:53AM -23.4640 -46.5820 73° East 159 183 4,100 -960 Descending FlightAware
03:53AM -23.4600 -46.5660 75° East 154 177 3,800 -900 Descending FlightAware
03:54AM -23.4560 -46.5510 74° East 154 177 3,500 -840 Descending FlightAware
03:54AM -23.4530 -46.5400 73° East 154 177 3,300 -720 Descending FlightAware
03:54AM -23.4490 -46.5250 74° East 153 176 3,100 -660 Descending FlightAware
03:54AM -23.4460 -46.5120 76° East 150 173 2,900 -780 Descending FlightAware
03:55AM -23.4420 -46.4980 73° East 150 173 2,600 -600 Descending FlightAware
03:55AM -23.4400 -46.4920 70° East 152 175 2,500 -180 Descending FlightAware
03:56AM -23.4360 -46.4760 75° East 152 175 2,500  Level FlightAware
03:58AM -23.4321 -46.4695 57° Northeast  Level Estimated
03:59AM -23.4321 -46.4695 350° North  Level Estimated
04:00AM -23.4321 -46.4695 350° North  Level Estimated
04:01AM -23.4321 -46.4695 350° North  Level Estimated
04:02AM -23.4321 -46.4695 350° North  Level Estimated
04:03AM -23.4321 -46.4695 350° North  Level Estimated
04:04AM -23.4321 -46.4695 350° North  Level Estimated
04:05AM -23.4321 -46.4695 350° North  Level Estimated
04:06AM -23.4321 -46.4695 350° North  Level Estimated
04:07AM -23.4321 -46.4695 350° North  Level Estimated
04:08AM -23.4321 -46.4695 350° North  Level Estimated
04:09AM -23.4321 -46.4695 350° North  Level Estimated
04:10AM -23.4321 -46.4695 350° North  Level Estimated
04:11AM -23.4321 -46.4695 350° North  Level Estimated
04:12AM -23.4321 -46.4695 350° North  Level Estimated
04:13AM -23.4321 -46.4695 350° North  Level Estimated
04:14AM -23.4321 -46.4695 350° North  Level Estimated
04:15AM -23.4321 -46.4695 350° North  Level Estimated
04:16AM -23.4321 -46.4695 350° North  Level Estimated
04:17AM -23.4321 -46.4695 350° North  Level Estimated
04:18AM -23.4321 -46.4695 350° North  Level Estimated
04:19AM -23.4321 -46.4695 350° North  Level Estimated
04:20AM -23.4321 -46.4695 350° North  Level Estimated
04:21AM -23.4321 -46.4695 350° North  Level Estimated
04:22AM -23.4321 -46.4695 350° North  Level Estimated
04:23AM -23.4321 -46.4695 350° North  Level Estimated
04:24AM -23.4321 -46.4695 350° North  Level Estimated
04:25AM -23.4321 -46.4695 350° North  Level Estimated